createdAt,value
2023-04-22T00:00:09.710Z,4.97
2023-04-22T00:02:39.870Z,5.22
2023-04-22T00:07:36.758Z,5.70
2023-04-22T00:10:05.079Z,5.53
2023-04-22T00:12:32.956Z,5.65
2023-04-22T00:15:00.861Z,5.97
2023-04-22T00:17:28.882Z,5.72
2023-04-22T00:19:58.137Z,5.97
2023-04-22T00:22:26.055Z,5.65
2023-04-22T00:24:53.843Z,5.13
2023-04-22T00:27:21.585Z,6.13
2023-04-22T00:29:49.512Z,5.57
2023-04-22T00:32:17.381Z,5.55
2023-04-22T00:34:45.243Z,5.55
2023-04-22T00:37:14.545Z,5.72
2023-04-22T00:39:42.589Z,5.40
2023-04-22T00:42:10.794Z,6.05
2023-04-22T00:44:38.928Z,5.57
2023-04-22T00:47:06.992Z,6.03
2023-04-22T00:49:36.192Z,5.88
2023-04-22T00:52:04.089Z,6.32
2023-04-22T00:54:36.064Z,5.65
2023-04-22T00:57:04.245Z,6.05
2023-04-22T00:59:32.062Z,5.63
2023-04-22T01:02:01.305Z,6.10
2023-04-22T01:04:29.385Z,5.63
2023-04-22T01:06:57.329Z,5.45
2023-04-22T01:09:25.547Z,6.10
2023-04-22T01:11:56.233Z,5.95
2023-04-22T01:14:24.742Z,5.70
2023-04-22T01:16:53.932Z,5.75
2023-04-22T01:19:21.966Z,5.60
2023-04-22T01:21:52.218Z,6.18
2023-04-22T01:24:21.820Z,6.22
2023-04-22T01:26:49.996Z,6.00
2023-04-22T01:29:17.787Z,5.43
2023-04-22T01:31:45.721Z,5.85
2023-04-22T01:34:13.708Z,5.30
2023-04-22T01:36:41.490Z,5.47
2023-04-22T01:39:09.302Z,6.00
2023-04-22T01:41:38.598Z,5.97
2023-04-22T01:44:07.259Z,5.70
2023-04-22T01:46:35.732Z,6.13
2023-04-22T01:49:03.720Z,6.15
2023-04-22T01:51:31.706Z,5.53
2023-04-22T01:53:59.728Z,5.68
2023-04-22T01:56:27.986Z,5.45
2023-04-22T01:58:58.057Z,5.43
2023-04-22T02:01:25.967Z,5.70
2023-04-22T02:03:53.802Z,5.63
2023-04-22T02:06:21.645Z,5.88
2023-04-22T02:08:49.436Z,5.63
2023-04-22T02:11:17.256Z,6.03
2023-04-22T02:13:45.031Z,5.35
2023-04-22T02:16:14.202Z,5.60
2023-04-22T02:18:42.860Z,6.28
2023-04-22T02:21:10.675Z,5.75
2023-04-22T02:23:41.470Z,5.28
2023-04-22T02:26:09.441Z,5.38
2023-04-22T02:28:37.506Z,5.90
2023-04-22T02:31:05.419Z,5.57
2023-04-22T02:33:34.607Z,5.85
2023-04-22T02:36:02.370Z,5.43
2023-04-22T02:38:30.611Z,5.75
2023-04-22T02:40:58.450Z,5.68
2023-04-22T02:43:26.828Z,6.10
2023-04-22T02:45:54.645Z,6.03
2023-04-22T02:48:22.671Z,5.57
2023-04-22T02:50:51.968Z,5.65
2023-04-22T02:53:19.796Z,5.88
2023-04-22T02:55:47.771Z,5.55
2023-04-22T02:58:15.581Z,5.53
2023-04-22T03:00:43.942Z,5.45
2023-04-22T03:03:11.928Z,5.28
2023-04-22T03:05:39.868Z,5.65
2023-04-22T03:08:09.097Z,5.65
2023-04-22T03:10:37.555Z,5.80
2023-04-22T03:13:05.363Z,5.78
2023-04-22T03:15:33.257Z,6.35
2023-04-22T03:18:01.150Z,6.10
2023-04-22T03:20:29.699Z,6.15
2023-04-22T03:22:57.477Z,6.47
2023-04-22T03:27:58.336Z,5.97
2023-04-22T03:30:26.687Z,6.45
2023-04-22T03:32:54.829Z,5.70
2023-04-22T03:35:27.100Z,5.68
2023-04-22T03:37:57.194Z,5.40
2023-04-22T03:40:32.057Z,6.05
2023-04-22T03:43:01.459Z,5.50
2023-04-22T03:45:30.165Z,6.00
2023-04-22T03:48:35.196Z,6.38
2023-04-22T03:51:06.826Z,5.95
2023-04-22T03:53:37.353Z,6.05
2023-04-22T03:56:07.407Z,6.35
2023-04-22T03:58:39.408Z,6.93
2023-04-22T04:01:09.351Z,6.13
2023-04-22T04:03:38.132Z,5.93
2023-04-22T04:06:07.845Z,6.85
2023-04-22T04:08:35.652Z,6.00
2023-04-22T04:11:03.516Z,6.97
2023-04-22T04:13:33.211Z,6.93
2023-04-22T04:16:23.270Z,7.10
2023-04-22T04:18:57.621Z,7.07
2023-04-22T04:21:27.949Z,6.57
2023-04-22T04:23:56.982Z,6.60
2023-04-22T04:26:28.785Z,6.75
2023-04-22T04:29:06.722Z,6.78
2023-04-22T04:31:35.368Z,6.78
2023-04-22T04:34:04.200Z,6.20
2023-04-22T04:36:32.866Z,6.90
2023-04-22T04:39:12.589Z,7.40
2023-04-22T04:41:41.144Z,6.60
2023-04-22T04:44:11.198Z,6.15
2023-04-22T04:46:40.860Z,6.38
2023-04-22T04:49:12.626Z,6.35
2023-04-22T04:51:56.666Z,5.85
2023-04-22T04:54:24.716Z,5.80
2023-04-22T04:56:52.689Z,6.50
2023-04-22T04:59:22.178Z,5.75
2023-04-22T05:01:50.548Z,5.72
2023-04-22T05:04:18.821Z,6.25
2023-04-22T05:06:46.772Z,6.07
2023-04-22T05:09:15.150Z,6.20
2023-04-22T05:11:44.588Z,6.77
2023-04-22T05:14:17.547Z,6.88
2023-04-22T05:16:48.581Z,6.47
2023-04-22T05:19:16.762Z,6.95
2023-04-22T05:21:45.547Z,6.47
2023-04-22T05:24:13.446Z,6.38
2023-04-22T05:26:41.598Z,6.78
2023-04-22T05:29:15.750Z,6.53
2023-04-22T05:31:43.975Z,6.43
2023-04-22T05:34:13.209Z,7.07
2023-04-22T05:36:41.459Z,7.10
2023-04-22T05:39:09.725Z,6.88
2023-04-22T05:41:37.631Z,7.00
2023-04-22T05:44:09.261Z,7.00
2023-04-22T05:46:37.316Z,6.43
2023-04-22T05:49:05.424Z,6.07
2023-04-22T05:52:00.755Z,6.00
2023-04-22T05:54:35.956Z,5.90
2023-04-22T05:57:04.771Z,6.35
2023-04-22T05:59:32.853Z,6.30
2023-04-22T06:02:00.956Z,5.93
2023-04-22T06:04:29.190Z,4.72
2023-04-22T06:06:57.654Z,5.80
2023-04-22T06:09:26.908Z,5.20
2023-04-22T06:11:54.764Z,4.97
2023-04-22T06:14:23.103Z,6.18
2023-04-22T06:16:52.697Z,5.72
2023-04-22T06:19:20.848Z,5.38
2023-04-22T06:21:48.673Z,5.50
2023-04-22T06:24:17.406Z,5.13
2023-04-22T06:26:46.643Z,5.50
2023-04-22T06:29:15.238Z,5.18
2023-04-22T06:31:43.816Z,5.22
2023-04-22T06:34:11.714Z,5.72
2023-04-22T06:36:40.243Z,5.35
2023-04-22T06:39:10.866Z,5.80
2023-04-22T06:41:46.146Z,5.43
2023-04-22T06:44:34.220Z,5.47
2023-04-22T06:47:24.317Z,5.80
2023-04-22T06:50:01.277Z,5.38
2023-04-22T06:52:37.823Z,5.07
2023-04-22T06:55:06.397Z,5.03
2023-04-22T06:57:35.570Z,5.90
2023-04-22T07:00:04.332Z,4.82
2023-04-22T07:02:32.711Z,4.93
2023-04-22T07:05:01.083Z,5.63
2023-04-22T07:07:29.102Z,4.70
2023-04-22T07:09:56.952Z,4.72
2023-04-22T07:12:28.302Z,4.85
2023-04-22T07:14:57.682Z,4.32
2023-04-22T07:17:25.452Z,4.82
2023-04-22T07:19:53.431Z,4.75
2023-04-22T07:22:21.286Z,3.97
2023-04-22T07:24:49.177Z,4.72
2023-04-22T07:27:17.229Z,4.70
2023-04-22T07:29:45.007Z,4.45
2023-04-22T07:32:15.310Z,4.47
2023-04-22T07:34:43.091Z,4.28
2023-04-22T07:37:11.030Z,3.88
2023-04-22T07:39:39.140Z,4.45
2023-04-22T07:42:07.305Z,4.72
2023-04-22T07:44:36.502Z,3.80
2023-04-22T07:47:07.669Z,4.50
2023-04-22T07:49:37.009Z,4.68
2023-04-22T07:52:05.017Z,4.15
2023-04-22T07:54:32.813Z,4.28
2023-04-22T07:57:01.638Z,4.50
2023-04-22T07:59:29.505Z,4.38
2023-04-22T08:01:57.432Z,4.10
2023-04-22T08:04:25.595Z,4.22
2023-04-22T08:06:55.871Z,3.85
2023-04-22T08:09:23.683Z,4.15
2023-04-22T08:11:53.704Z,3.97
2023-04-22T08:14:21.491Z,3.60
2023-04-22T08:16:49.303Z,3.63
2023-04-22T08:19:17.089Z,3.63
2023-04-22T08:21:44.905Z,3.90
2023-04-22T08:24:14.163Z,3.40
2023-04-22T08:26:42.329Z,3.30
2023-04-22T08:29:10.542Z,3.78
2023-04-22T08:31:38.344Z,3.30
2023-04-22T08:34:06.257Z,3.45
2023-04-22T08:36:34.128Z,3.67
2023-04-22T08:39:02.240Z,3.60
2023-04-22T08:41:34.737Z,3.53
2023-04-22T08:44:02.817Z,3.88
2023-04-22T08:46:32.251Z,3.35
2023-04-22T08:49:03.652Z,3.28
2023-04-22T08:51:33.455Z,3.90
2023-04-22T08:54:01.533Z,3.20
2023-04-22T08:56:31.430Z,3.55
2023-04-22T08:58:59.742Z,3.08
2023-04-22T09:01:29.588Z,3.47
2023-04-22T09:04:00.741Z,4.93
2023-04-22T09:06:28.902Z,3.42
2023-04-22T09:08:58.933Z,2.85
2023-04-22T09:11:28.594Z,3.35
2023-04-22T09:13:58.024Z,5.30
2023-04-22T09:16:25.911Z,3.33
2023-04-22T09:18:53.680Z,3.10
2023-04-22T09:21:21.525Z,3.00
2023-04-22T09:23:51.609Z,3.10
2023-04-22T09:26:20.833Z,3.28
2023-04-22T09:28:52.328Z,3.17
2023-04-22T09:31:21.751Z,3.22
2023-04-22T09:33:51.794Z,3.00
2023-04-22T09:36:24.154Z,3.90
2023-04-22T09:38:55.879Z,3.40
2023-04-22T09:41:30.351Z,2.97
2023-04-22T09:43:59.177Z,3.13
2023-04-22T09:46:30.116Z,3.10
2023-04-22T09:48:59.775Z,3.13
2023-04-22T09:51:29.114Z,3.10
2023-04-22T09:54:04.147Z,3.43
2023-04-22T09:56:43.179Z,3.42
2023-04-22T09:59:11.148Z,2.97
2023-04-22T10:01:41.756Z,2.80
2023-04-22T10:04:11.296Z,3.30
2023-04-22T10:06:39.311Z,3.58
2023-04-22T10:09:09.419Z,3.10
2023-04-22T10:11:38.454Z,3.22
2023-04-22T10:14:06.539Z,3.30
2023-04-22T10:16:36.865Z,3.33
2023-04-22T10:19:08.469Z,3.30
2023-04-22T10:21:36.719Z,3.10
2023-04-22T10:24:05.283Z,3.15
2023-04-22T10:26:41.131Z,3.00
2023-04-22T10:29:10.812Z,3.05
2023-04-22T10:31:39.651Z,3.15
2023-04-22T10:34:14.106Z,2.95
2023-04-22T10:36:59.563Z,3.15
2023-04-22T10:39:28.860Z,3.20
2023-04-22T10:42:10.266Z,3.40
2023-04-22T10:44:51.950Z,2.40
2023-04-22T10:47:27.421Z,2.80
2023-04-22T10:52:51.788Z,2.95
2023-04-22T10:55:21.342Z,2.55
2023-04-22T10:57:50.977Z,2.78
2023-04-22T11:00:35.285Z,2.50
2023-04-22T11:03:12.486Z,2.50
2023-04-22T11:05:41.643Z,2.58
2023-04-22T11:08:20.610Z,2.50
2023-04-22T11:10:50.703Z,2.72
2023-04-22T11:13:21.027Z,3.05
2023-04-22T11:15:50.831Z,3.10
2023-04-22T11:18:21.406Z,3.28
2023-04-22T11:20:50.928Z,2.65
2023-04-22T11:23:21.922Z,2.95
2023-04-22T11:25:54.754Z,3.00
2023-04-22T11:28:23.368Z,2.75
2023-04-22T11:30:51.829Z,2.85
2023-04-22T11:33:20.943Z,3.30
2023-04-22T11:35:50.503Z,2.90
2023-04-22T11:38:18.362Z,3.15
2023-04-22T11:40:48.199Z,2.80
2023-04-22T11:43:18.550Z,2.60
2023-04-22T11:45:46.592Z,2.72
2023-04-22T11:48:15.712Z,2.95
2023-04-22T11:50:44.791Z,3.35
2023-04-22T11:53:17.624Z,3.55
2023-04-22T11:55:50.826Z,2.90
2023-04-22T11:58:24.904Z,2.95
2023-04-22T12:00:54.135Z,3.05
2023-04-22T12:03:24.072Z,3.37
2023-04-22T12:05:54.419Z,3.40
2023-04-22T12:08:24.677Z,3.20
2023-04-22T12:10:55.900Z,3.03
2023-04-22T12:13:25.813Z,2.88
2023-04-22T12:15:56.684Z,2.85
2023-04-22T12:18:31.624Z,2.80
2023-04-22T12:21:09.234Z,3.22
2023-04-22T12:23:42.584Z,2.72
2023-04-22T12:26:12.942Z,2.92
2023-04-22T12:28:42.434Z,2.95
2023-04-22T12:31:10.871Z,2.90
2023-04-22T12:33:39.795Z,2.90
2023-04-22T12:36:08.042Z,2.72
2023-04-22T12:38:36.290Z,3.17
2023-04-22T12:41:04.743Z,3.05
2023-04-22T12:43:36.717Z,3.28
2023-04-22T12:46:05.632Z,3.72
2023-04-22T12:48:34.142Z,3.15
2023-04-22T12:51:01.954Z,2.70
2023-04-22T12:53:30.142Z,2.80
2023-04-22T12:55:58.423Z,2.58
2023-04-22T12:58:27.160Z,2.83
2023-04-22T13:00:56.320Z,2.60
2023-04-22T13:03:24.456Z,2.85
2023-04-22T13:05:53.231Z,2.55
2023-04-22T13:08:21.194Z,2.40
2023-04-22T13:10:49.196Z,2.42
2023-04-22T13:13:18.849Z,2.22
2023-04-22T13:15:47.836Z,2.60
2023-04-22T13:18:17.554Z,2.40
2023-04-22T13:20:45.458Z,2.22
2023-04-22T13:23:14.809Z,2.22
2023-04-22T13:25:42.702Z,2.80
2023-04-22T13:28:11.437Z,3.05
2023-04-22T13:30:39.812Z,2.25
2023-04-22T13:33:08.182Z,2.50
2023-04-22T13:35:37.547Z,2.85
2023-04-22T13:38:07.159Z,2.40
2023-04-22T13:40:35.070Z,2.50
2023-04-22T13:43:02.964Z,2.60
2023-04-22T13:45:31.031Z,2.10
2023-04-22T13:47:58.993Z,2.17
2023-04-22T13:50:26.793Z,2.10
2023-04-22T13:52:56.499Z,3.28
2023-04-22T13:55:24.329Z,4.05
2023-04-22T13:57:52.502Z,2.28
2023-04-22T14:00:20.883Z,2.83
2023-04-22T14:02:49.498Z,2.97
2023-04-22T14:05:17.931Z,2.67
2023-04-22T14:07:46.153Z,4.13
2023-04-22T14:10:16.313Z,2.58
2023-04-22T14:12:46.028Z,3.53
2023-04-22T14:15:14.720Z,2.60
2023-04-22T14:17:43.233Z,3.63
2023-04-22T14:20:11.847Z,4.55
2023-04-22T14:22:39.603Z,2.47
2023-04-22T14:25:08.520Z,7.03
2023-04-22T14:27:37.725Z,6.78
2023-04-22T14:30:08.315Z,10.98
2023-04-22T14:32:36.811Z,3.92
2023-04-22T14:35:05.034Z,2.67
2023-04-22T14:37:32.996Z,2.40
2023-04-22T14:40:00.998Z,2.33
2023-04-22T14:42:29.479Z,2.30
2023-04-22T14:44:58.778Z,2.15
2023-04-22T14:47:26.941Z,2.00
2023-04-22T14:49:54.789Z,2.03
2023-04-22T14:52:22.703Z,2.10
2023-04-22T14:54:51.917Z,2.75
2023-04-22T14:57:20.045Z,2.45
2023-04-22T14:59:47.852Z,2.20
2023-04-22T15:02:17.258Z,2.13
2023-04-22T15:04:45.322Z,2.25
2023-04-22T15:07:13.144Z,2.20
2023-04-22T15:09:41.331Z,2.05
2023-04-22T15:12:09.491Z,2.38
2023-04-22T15:14:37.563Z,2.30
2023-04-22T15:17:06.318Z,2.03
2023-04-22T15:19:35.569Z,2.38
2023-04-22T15:22:03.858Z,2.17
2023-04-22T15:24:31.703Z,1.95
2023-04-22T15:27:01.297Z,2.53
2023-04-22T15:29:29.525Z,2.33
2023-04-22T15:31:57.842Z,2.38
2023-04-22T15:34:26.155Z,2.22
2023-04-22T15:36:55.378Z,2.28
2023-04-22T15:39:25.132Z,2.13
2023-04-22T15:41:52.899Z,2.30
2023-04-22T15:44:20.692Z,2.40
2023-04-22T15:46:48.552Z,2.28
2023-04-22T15:49:16.641Z,2.20
2023-04-22T15:51:44.534Z,2.60
2023-04-22T15:54:14.080Z,2.30
2023-04-22T15:56:41.982Z,7.25
2023-04-22T15:59:09.917Z,5.60
2023-04-22T16:01:40.471Z,2.70
2023-04-22T16:04:08.887Z,2.45
2023-04-22T16:06:38.100Z,2.67
2023-04-22T16:09:06.018Z,5.18
2023-04-22T16:11:35.214Z,3.00
2023-04-22T16:14:03.124Z,2.50
2023-04-22T16:16:32.338Z,2.40
2023-04-22T16:19:00.240Z,2.20
2023-04-22T16:21:28.629Z,2.30
2023-04-22T16:23:56.490Z,2.80
2023-04-22T16:26:24.338Z,3.60
2023-04-22T16:28:54.832Z,2.13
2023-04-22T16:31:23.665Z,2.70
2023-04-22T16:33:52.163Z,3.10
2023-04-22T16:36:20.160Z,2.40
2023-04-22T16:38:47.989Z,2.40
2023-04-22T16:41:15.968Z,2.50
2023-04-22T16:43:43.813Z,2.53
2023-04-22T16:46:13.102Z,3.00
2023-04-22T16:48:40.984Z,2.70
2023-04-22T16:51:08.861Z,2.60
2023-04-22T16:53:37.079Z,2.47
2023-04-22T16:56:05.261Z,2.90
2023-04-22T16:58:33.116Z,2.35
2023-04-22T17:01:00.957Z,2.60
2023-04-22T17:03:30.271Z,2.47
2023-04-22T17:05:58.176Z,2.80
2023-04-22T17:08:26.007Z,2.55
2023-04-22T17:10:53.769Z,2.33
2023-04-22T17:13:21.540Z,2.83
2023-04-22T17:15:49.430Z,2.63
2023-04-22T17:18:17.224Z,2.78
2023-04-22T17:20:46.509Z,2.70
2023-04-22T17:23:14.483Z,2.57
2023-04-22T17:25:42.487Z,3.00
2023-04-22T17:28:11.678Z,2.78
2023-04-22T17:30:39.701Z,3.10
2023-04-22T17:33:07.550Z,2.08
2023-04-22T17:35:35.306Z,2.00
2023-04-22T17:38:04.553Z,2.60
2023-04-22T17:40:32.397Z,2.70
2023-04-22T17:43:00.330Z,2.72
2023-04-22T17:45:28.254Z,3.10
2023-04-22T17:47:56.077Z,3.10
2023-04-22T17:50:23.976Z,2.97
2023-04-22T17:52:51.912Z,2.70
2023-04-22T17:55:21.578Z,2.92
2023-04-22T17:57:49.426Z,2.85
2023-04-22T18:00:18.053Z,2.90
2023-04-22T18:02:46.148Z,2.70
2023-04-22T18:05:14.542Z,3.03
2023-04-22T18:07:42.382Z,3.17
2023-04-22T18:10:11.935Z,3.00
2023-04-22T18:12:41.682Z,3.30
2023-04-22T18:15:09.884Z,2.72
2023-04-22T18:17:38.092Z,3.13
2023-04-22T18:20:17.520Z,2.60
2023-04-22T18:22:47.817Z,2.55
2023-04-22T18:25:15.994Z,3.35
2023-04-22T18:27:45.490Z,3.63
2023-04-22T18:30:13.620Z,4.07
2023-04-22T18:32:41.515Z,3.25
2023-04-22T18:35:10.678Z,2.88
2023-04-22T18:37:38.504Z,2.80
2023-04-22T18:40:08.038Z,3.15
2023-04-22T18:42:35.849Z,3.10
2023-04-22T18:45:07.463Z,3.22
2023-04-22T18:47:35.380Z,3.22
2023-04-22T18:50:03.276Z,3.10
2023-04-22T18:52:31.166Z,3.28
2023-04-22T18:54:59.199Z,3.08
2023-04-22T18:57:27.125Z,3.67
2023-04-22T18:59:55.071Z,3.60
2023-04-22T19:02:24.416Z,3.58
2023-04-22T19:04:54.103Z,3.53
2023-04-22T19:07:22.048Z,3.60
2023-04-22T19:09:49.836Z,3.45
2023-04-22T19:12:19.476Z,3.47
2023-04-22T19:14:48.413Z,3.55
2023-04-22T19:17:16.315Z,3.50
2023-04-22T19:19:46.488Z,3.83
2023-04-22T19:24:42.156Z,4.03
2023-04-22T19:27:12.409Z,4.00
2023-04-22T19:29:41.561Z,3.88
2023-04-22T19:32:11.013Z,3.30
2023-04-22T19:34:39.052Z,3.23
2023-04-22T19:37:08.395Z,3.58
2023-04-22T19:39:36.686Z,3.47
2023-04-22T19:42:04.618Z,3.30
2023-04-22T19:44:32.745Z,3.22
2023-04-22T19:47:00.871Z,3.60
2023-04-22T19:49:31.141Z,4.65
2023-04-22T19:54:30.446Z,3.67
2023-04-22T19:56:59.067Z,3.90
2023-04-22T19:59:31.032Z,4.00
2023-04-22T20:01:59.472Z,3.55
2023-04-22T20:04:28.088Z,3.80
2023-04-22T20:06:57.159Z,4.22
2023-04-22T20:09:26.460Z,3.90
2023-04-22T20:11:55.853Z,2.85
2023-04-22T20:14:24.334Z,3.67
2023-04-22T20:16:52.690Z,3.78
2023-04-22T20:19:20.866Z,3.20
2023-04-22T20:21:49.514Z,3.28
2023-04-22T20:24:19.584Z,2.95
2023-04-22T20:26:49.515Z,3.53
2023-04-22T20:29:19.519Z,3.45
2023-04-22T20:31:47.713Z,3.88
2023-04-22T20:34:15.704Z,3.53
2023-04-22T20:36:43.862Z,3.72
2023-04-22T20:39:14.354Z,3.65
2023-04-22T20:41:43.257Z,3.70
2023-04-22T20:44:11.391Z,4.35
2023-04-22T20:46:40.660Z,4.30
2023-04-22T20:49:08.521Z,3.78
2023-04-22T20:51:36.511Z,3.80
2023-04-22T20:54:06.195Z,3.88
2023-04-22T20:56:37.988Z,3.30
2023-04-22T20:59:06.062Z,3.78
2023-04-22T21:01:34.166Z,3.20
2023-04-22T21:04:04.464Z,3.58
2023-04-22T21:06:34.037Z,3.95
2023-04-22T21:09:02.770Z,4.53
2023-04-22T21:11:31.182Z,4.32
2023-04-22T21:14:00.018Z,4.57
2023-04-22T21:16:29.703Z,5.47
2023-04-22T21:19:00.407Z,5.45
2023-04-22T21:21:33.965Z,4.97
2023-04-22T21:24:02.818Z,4.72
2023-04-22T21:26:31.280Z,5.00
2023-04-22T21:28:59.612Z,5.38
2023-04-22T21:31:28.136Z,6.05
2023-04-22T21:33:56.121Z,4.90
2023-04-22T21:36:25.022Z,5.05
2023-04-22T21:38:54.956Z,6.18
2023-04-22T21:41:23.313Z,5.47
2023-04-22T21:43:51.134Z,5.30
2023-04-22T21:46:19.934Z,5.82
2023-04-22T21:48:47.886Z,6.28
2023-04-22T21:51:15.696Z,5.80
2023-04-22T21:53:44.507Z,5.40
2023-04-22T21:56:13.759Z,5.75
2023-04-22T21:58:41.902Z,5.97
2023-04-22T22:01:09.749Z,5.20
2023-04-22T22:03:38.010Z,5.90
2023-04-22T22:06:06.618Z,5.88
2023-04-22T22:08:34.400Z,6.60
2023-04-22T22:11:07.008Z,5.97
2023-04-22T22:13:37.281Z,5.60
2023-04-22T22:16:05.492Z,6.20
2023-04-22T22:18:33.451Z,7.40
2023-04-22T22:21:01.422Z,6.82
2023-04-22T22:23:29.287Z,7.60
2023-04-22T22:25:57.141Z,8.00
2023-04-22T22:28:25.041Z,7.78
2023-04-22T22:30:59.553Z,5.90
2023-04-22T22:33:27.410Z,5.53
2023-04-22T22:35:55.367Z,5.43
2023-04-22T22:38:23.484Z,5.97
2023-04-22T22:40:51.333Z,5.57
2023-04-22T22:43:19.375Z,6.05
2023-04-22T22:45:47.283Z,6.00
2023-04-22T22:48:16.663Z,5.45
2023-04-22T22:50:46.360Z,5.27
2023-04-22T22:53:14.344Z,5.75
2023-04-22T22:55:42.091Z,5.93
2023-04-22T22:58:10.313Z,5.68
2023-04-22T23:00:38.195Z,5.07
2023-04-22T23:03:06.747Z,5.35
2023-04-22T23:05:36.145Z,5.60
2023-04-22T23:08:04.070Z,5.57
2023-04-22T23:10:32.431Z,5.88
2023-04-22T23:13:00.343Z,5.95
2023-04-22T23:15:28.222Z,6.00
2023-04-22T23:17:56.202Z,7.05
2023-04-22T23:20:25.541Z,6.50
2023-04-22T23:22:55.659Z,7.43
2023-04-22T23:25:24.329Z,6.32
2023-04-22T23:27:52.808Z,7.20
2023-04-22T23:30:21.864Z,7.40
2023-04-22T23:32:52.064Z,7.32
2023-04-22T23:37:48.836Z,6.85
2023-04-22T23:40:18.233Z,7.68
2023-04-22T23:42:46.016Z,7.67
2023-04-22T23:45:13.902Z,7.43
2023-04-22T23:47:42.076Z,6.97
2023-04-22T23:50:10.665Z,6.85
2023-04-22T23:52:41.255Z,6.50
2023-04-22T23:55:11.331Z,6.65
2023-04-22T23:57:41.175Z,6.35
